sensor_id;sensor_type;location;lat;lon;timestamp;pressure;altitude;pressure_sealevel;temperature;humidity
16030;BME280;34770;49.272;11.070;2023-05-10T00:01:46;96977.00;;;15.43;67.85
16030;BME280;34770;49.272;11.070;2023-05-10T00:04:12;96973.50;;;15.35;68.91
16030;BME280;34770;49.272;11.070;2023-05-10T00:06:37;96973.22;;;15.44;70.03
16030;BME280;34770;49.272;11.070;2023-05-10T00:09:03;96954.94;;;15.45;70.40
16030;BME280;34770;49.272;11.070;2023-05-10T00:11:29;96959.22;;;15.47;71.37
16030;BME280;34770;49.272;11.070;2023-05-10T00:13:54;96973.16;;;15.67;71.50
16030;BME280;34770;49.272;11.070;2023-05-10T00:16:20;96971.91;;;15.40;71.44
16030;BME280;34770;49.272;11.070;2023-05-10T00:18:46;96956.91;;;15.36;72.33
16030;BME280;34770;49.272;11.070;2023-05-10T00:21:11;96960.94;;;15.11;73.26
16030;BME280;34770;49.272;11.070;2023-05-10T00:23:37;96961.41;;;15.15;74.28
16030;BME280;34770;49.272;11.070;2023-05-10T00:26:02;96966.00;;;15.14;74.13
16030;BME280;34770;49.272;11.070;2023-05-10T00:28:28;96953.75;;;14.95;75.54
16030;BME280;34770;49.272;11.070;2023-05-10T00:30:54;96959.25;;;15.10;76.31
16030;BME280;34770;49.272;11.070;2023-05-10T00:33:19;96957.47;;;15.17;76.58
16030;BME280;34770;49.272;11.070;2023-05-10T00:35:45;96951.72;;;15.12;76.32
16030;BME280;34770;49.272;11.070;2023-05-10T00:38:10;96948.00;;;14.90;75.87
16030;BME280;34770;49.272;11.070;2023-05-10T00:40:36;96952.59;;;14.90;76.72
16030;BME280;34770;49.272;11.070;2023-05-10T00:43:02;96954.03;;;15.00;77.70
16030;BME280;34770;49.272;11.070;2023-05-10T00:45:29;96958.06;;;15.04;76.85
16030;BME280;34770;49.272;11.070;2023-05-10T00:47:55;96949.06;;;15.04;77.19
16030;BME280;34770;49.272;11.070;2023-05-10T00:50:24;96955.47;;;15.11;77.56
16030;BME280;34770;49.272;11.070;2023-05-10T00:52:50;96957.81;;;15.14;76.84
16030;BME280;34770;49.272;11.070;2023-05-10T00:55:15;96951.38;;;14.92;76.53
16030;BME280;34770;49.272;11.070;2023-05-10T00:57:41;96948.97;;;14.75;76.56
16030;BME280;34770;49.272;11.070;2023-05-10T01:00:07;96951.47;;;14.84;77.65
16030;BME280;34770;49.272;11.070;2023-05-10T01:02:34;96956.66;;;14.94;78.08
16030;BME280;34770;49.272;11.070;2023-05-10T01:05:02;96948.94;;;14.97;78.33
16030;BME280;34770;49.272;11.070;2023-05-10T01:07:29;96949.97;;;14.96;77.61
16030;BME280;34770;49.272;11.070;2023-05-10T01:09:54;96941.00;;;14.73;77.95
16030;BME280;34770;49.272;11.070;2023-05-10T01:12:20;96952.97;;;14.87;78.15
16030;BME280;34770;49.272;11.070;2023-05-10T01:14:46;96963.06;;;15.01;78.53
16030;BME280;34770;49.272;11.070;2023-05-10T01:17:12;96961.66;;;15.05;78.36
16030;BME280;34770;49.272;11.070;2023-05-10T01:19:38;96961.97;;;15.10;77.97
16030;BME280;34770;49.272;11.070;2023-05-10T01:33:11;96950.00;;;14.74;78.40
16030;BME280;34770;49.272;11.070;2023-05-10T01:38:25;96955.34;;;14.90;78.10
16030;BME280;34770;49.272;11.070;2023-05-10T01:44:31;96959.41;;;15.08;78.78
16030;BME280;34770;49.272;11.070;2023-05-10T01:47:12;96957.19;;;15.12;78.76
16030;BME280;34770;49.272;11.070;2023-05-10T01:49:53;96959.53;;;15.15;78.78
16030;BME280;34770;49.272;11.070;2023-05-10T01:52:25;96965.28;;;15.20;78.99
16030;BME280;34770;49.272;11.070;2023-05-10T01:55:00;96945.59;;;15.10;78.32
16030;BME280;34770;49.272;11.070;2023-05-10T01:57:32;96968.19;;;15.19;78.34
16030;BME280;34770;49.272;11.070;2023-05-10T01:59:59;96945.66;;;15.02;78.48
16030;BME280;34770;49.272;11.070;2023-05-10T02:02:27;96974.41;;;15.13;79.29
16030;BME280;34770;49.272;11.070;2023-05-10T02:04:54;96955.34;;;15.04;78.33
16030;BME280;34770;49.272;11.070;2023-05-10T02:07:21;96965.38;;;15.12;78.93
16030;BME280;34770;49.272;11.070;2023-05-10T02:09:51;96973.47;;;15.20;78.50
16030;BME280;34770;49.272;11.070;2023-05-10T02:12:17;96973.91;;;15.09;78.55
16030;BME280;34770;49.272;11.070;2023-05-10T02:14:44;96962.28;;;15.15;79.03
16030;BME280;34770;49.272;11.070;2023-05-10T02:17:11;96945.59;;;15.10;78.84
16030;BME280;34770;49.272;11.070;2023-05-10T02:19:39;96963.94;;;15.16;78.46
16030;BME280;34770;49.272;11.070;2023-05-10T02:22:07;96959.63;;;15.22;78.80
16030;BME280;34770;49.272;11.070;2023-05-10T02:24:34;96952.28;;;15.22;78.02
16030;BME280;34770;49.272;11.070;2023-05-10T02:27:02;96958.59;;;15.23;78.05
16030;BME280;34770;49.272;11.070;2023-05-10T02:29:29;96965.75;;;15.24;78.44
16030;BME280;34770;49.272;11.070;2023-05-10T02:31:57;96956.72;;;15.23;78.85
16030;BME280;34770;49.272;11.070;2023-05-10T02:34:25;96963.56;;;15.19;78.16
16030;BME280;34770;49.272;11.070;2023-05-10T02:36:52;96968.50;;;15.24;78.54
16030;BME280;34770;49.272;11.070;2023-05-10T02:39:22;96967.16;;;15.20;78.82
16030;BME280;34770;49.272;11.070;2023-05-10T02:41:50;96969.88;;;15.20;78.82
16030;BME280;34770;49.272;11.070;2023-05-10T02:44:20;96964.91;;;15.23;78.55
16030;BME280;34770;49.272;11.070;2023-05-10T02:46:47;96963.56;;;15.19;77.80
16030;BME280;34770;49.272;11.070;2023-05-10T02:49:13;96971.75;;;15.19;79.20
16030;BME280;34770;49.272;11.070;2023-05-10T02:51:48;96967.31;;;15.03;78.13
16030;BME280;34770;49.272;11.070;2023-05-10T02:54:19;96952.59;;;14.90;78.13
16030;BME280;34770;49.272;11.070;2023-05-10T02:56:55;96966.13;;;14.83;78.38
16030;BME280;34770;49.272;11.070;2023-05-10T02:59:21;96943.66;;;14.81;78.78
16030;BME280;34770;49.272;11.070;2023-05-10T03:01:47;96963.81;;;14.95;79.28
16030;BME280;34770;49.272;11.070;2023-05-10T03:04:12;96972.91;;;14.87;78.49
16030;BME280;34770;49.272;11.070;2023-05-10T03:06:38;96969.34;;;14.87;78.54
16030;BME280;34770;49.272;11.070;2023-05-10T03:09:04;96974.78;;;14.87;79.01
16030;BME280;34770;49.272;11.070;2023-05-10T03:17:26;96964.31;;;14.76;79.18
16030;BME280;34770;49.272;11.070;2023-05-10T03:22:33;96967.97;;;14.45;78.85
16030;BME280;34770;49.272;11.070;2023-05-10T03:25:01;96969.56;;;14.32;79.10
16030;BME280;34770;49.272;11.070;2023-05-10T03:27:29;96979.25;;;14.26;80.18
16030;BME280;34770;49.272;11.070;2023-05-10T03:29:55;96986.69;;;14.10;81.10
16030;BME280;34770;49.272;11.070;2023-05-10T03:32:22;96978.09;;;14.21;80.54
16030;BME280;34770;49.272;11.070;2023-05-10T03:34:48;96992.50;;;14.45;79.69
16030;BME280;34770;49.272;11.070;2023-05-10T03:37:13;96989.22;;;14.50;79.16
16030;BME280;34770;49.272;11.070;2023-05-10T03:39:39;96986.78;;;14.55;79.11
16030;BME280;34770;49.272;11.070;2023-05-10T03:42:04;97001.94;;;14.58;79.26
16030;BME280;34770;49.272;11.070;2023-05-10T03:44:30;96997.81;;;14.62;79.58
16030;BME280;34770;49.272;11.070;2023-05-10T03:46:56;96997.69;;;14.55;79.03
16030;BME280;34770;49.272;11.070;2023-05-10T03:49:22;97007.63;;;14.48;78.54
16030;BME280;34770;49.272;11.070;2023-05-10T03:51:48;97008.47;;;14.48;78.66
16030;BME280;34770;49.272;11.070;2023-05-10T03:54:13;96996.22;;;14.44;78.83
16030;BME280;34770;49.272;11.070;2023-05-10T03:56:38;97005.06;;;14.46;78.99
16030;BME280;34770;49.272;11.070;2023-05-10T03:59:04;96995.22;;;14.07;78.83
16030;BME280;34770;49.272;11.070;2023-05-10T04:01:33;97001.63;;;14.22;78.94
16030;BME280;34770;49.272;11.070;2023-05-10T04:03:59;97011.84;;;14.20;79.33
16030;BME280;34770;49.272;11.070;2023-05-10T04:06:24;97011.13;;;14.34;79.86
16030;BME280;34770;49.272;11.070;2023-05-10T04:08:50;97020.13;;;14.34;78.44
16030;BME280;34770;49.272;11.070;2023-05-10T04:11:15;97010.81;;;14.21;78.90
16030;BME280;34770;49.272;11.070;2023-05-10T04:13:41;97018.47;;;14.25;79.11
16030;BME280;34770;49.272;11.070;2023-05-10T04:16:06;97023.25;;;14.15;79.08
16030;BME280;34770;49.272;11.070;2023-05-10T04:18:32;97016.88;;;14.00;78.49
16030;BME280;34770;49.272;11.070;2023-05-10T04:20:57;97017.38;;;13.95;78.61
16030;BME280;34770;49.272;11.070;2023-05-10T04:23:23;97039.84;;;14.06;79.47
16030;BME280;34770;49.272;11.070;2023-05-10T04:25:48;97034.19;;;14.07;79.23
16030;BME280;34770;49.272;11.070;2023-05-10T04:28:14;97034.84;;;14.17;79.35
16030;BME280;34770;49.272;11.070;2023-05-10T04:30:39;97042.53;;;14.14;79.92
16030;BME280;34770;49.272;11.070;2023-05-10T04:33:05;97033.81;;;14.18;79.39
16030;BME280;34770;49.272;11.070;2023-05-10T04:35:31;97043.47;;;14.37;78.83
16030;BME280;34770;49.272;11.070;2023-05-10T04:37:56;97046.19;;;14.29;77.96
16030;BME280;34770;49.272;11.070;2023-05-10T04:40:22;97033.41;;;14.29;78.66
16030;BME280;34770;49.272;11.070;2023-05-10T04:42:47;97028.28;;;14.34;78.79
16030;BME280;34770;49.272;11.070;2023-05-10T04:45:13;97050.66;;;14.61;78.16
16030;BME280;34770;49.272;11.070;2023-05-10T04:47:41;97054.88;;;14.63;78.71
16030;BME280;34770;49.272;11.070;2023-05-10T04:50:07;97053.81;;;14.72;79.00
16030;BME280;34770;49.272;11.070;2023-05-10T04:52:33;97041.81;;;14.59;77.83
16030;BME280;34770;49.272;11.070;2023-05-10T04:54:58;97078.22;;;14.66;77.05
16030;BME280;34770;49.272;11.070;2023-05-10T04:57:24;97074.66;;;14.65;78.08
16030;BME280;34770;49.272;11.070;2023-05-10T04:59:49;97067.66;;;14.24;77.40
16030;BME280;34770;49.272;11.070;2023-05-10T05:02:15;97053.94;;;14.09;77.48
16030;BME280;34770;49.272;11.070;2023-05-10T05:04:40;97079.00;;;13.97;77.48
16030;BME280;34770;49.272;11.070;2023-05-10T05:07:06;97089.38;;;14.01;79.04
16030;BME280;34770;49.272;11.070;2023-05-10T05:09:31;97092.06;;;14.09;78.48
16030;BME280;34770;49.272;11.070;2023-05-10T05:11:59;97091.81;;;13.80;77.52
16030;BME280;34770;49.272;11.070;2023-05-10T05:14:25;97082.31;;;13.68;77.40
16030;BME280;34770;49.272;11.070;2023-05-10T05:16:51;97102.41;;;13.59;79.04
16030;BME280;34770;49.272;11.070;2023-05-10T05:19:17;97094.28;;;13.26;79.31
16030;BME280;34770;49.272;11.070;2023-05-10T05:21:43;97097.84;;;13.43;78.46
16030;BME280;34770;49.272;11.070;2023-05-10T05:24:08;97102.25;;;13.60;79.22
16030;BME280;34770;49.272;11.070;2023-05-10T05:26:35;97083.53;;;13.49;78.10
16030;BME280;34770;49.272;11.070;2023-05-10T05:29:01;97088.97;;;13.65;79.08
16030;BME280;34770;49.272;11.070;2023-05-10T05:31:27;97090.13;;;13.79;77.58
16030;BME280;34770;49.272;11.070;2023-05-10T05:33:52;97101.72;;;13.65;78.37
16030;BME280;34770;49.272;11.070;2023-05-10T05:36:18;97100.97;;;13.87;77.22
16030;BME280;34770;49.272;11.070;2023-05-10T05:38:43;97089.75;;;13.90;77.53
16030;BME280;34770;49.272;11.070;2023-05-10T05:41:09;97099.97;;;13.88;77.37
16030;BME280;34770;49.272;11.070;2023-05-10T05:43:34;97097.31;;;13.56;78.41
16030;BME280;34770;49.272;11.070;2023-05-10T05:45:59;97108.31;;;13.78;77.48
16030;BME280;34770;49.272;11.070;2023-05-10T05:48:25;97114.06;;;14.00;76.26
16030;BME280;34770;49.272;11.070;2023-05-10T05:50:54;97118.03;;;13.89;75.60
16030;BME280;34770;49.272;11.070;2023-05-10T05:53:21;97107.78;;;13.99;76.43
16030;BME280;34770;49.272;11.070;2023-05-10T05:55:54;97111.34;;;14.00;76.28
16030;BME280;34770;49.272;11.070;2023-05-10T05:58:20;97127.84;;;14.06;76.63
16030;BME280;34770;49.272;11.070;2023-05-10T06:00:46;97125.16;;;13.82;76.31
16030;BME280;34770;49.272;11.070;2023-05-10T06:03:11;97124.28;;;14.06;76.81
16030;BME280;34770;49.272;11.070;2023-05-10T06:05:37;97118.03;;;13.81;75.95
16030;BME280;34770;49.272;11.070;2023-05-10T06:08:03;97131.94;;;14.02;76.04
16030;BME280;34770;49.272;11.070;2023-05-10T06:10:28;97139.38;;;14.32;76.83
16030;BME280;34770;49.272;11.070;2023-05-10T06:12:54;97147.13;;;14.51;74.55
16030;BME280;34770;49.272;11.070;2023-05-10T06:15:19;97148.81;;;14.61;72.94
16030;BME280;34770;49.272;11.070;2023-05-10T06:17:45;97142.38;;;14.54;73.07
16030;BME280;34770;49.272;11.070;2023-05-10T06:20:12;97150.13;;;14.73;74.17
16030;BME280;34770;49.272;11.070;2023-05-10T06:22:38;97135.44;;;14.74;73.48
16030;BME280;34770;49.272;11.070;2023-05-10T06:25:03;97142.94;;;14.72;72.59
16030;BME280;34770;49.272;11.070;2023-05-10T06:27:29;97140.47;;;14.93;73.07
16030;BME280;34770;49.272;11.070;2023-05-10T06:29:54;97134.09;;;15.00;71.94
16030;BME280;34770;49.272;11.070;2023-05-10T06:32:20;97159.97;;;15.04;72.40
16030;BME280;34770;49.272;11.070;2023-05-10T06:34:45;97154.25;;;14.91;71.67
16030;BME280;34770;49.272;11.070;2023-05-10T06:37:11;97160.06;;;15.19;72.54
16030;BME280;34770;49.272;11.070;2023-05-10T06:39:37;97164.06;;;15.08;71.41
16030;BME280;34770;49.272;11.070;2023-05-10T06:42:03;97164.66;;;14.96;73.76
16030;BME280;34770;49.272;11.070;2023-05-10T06:44:29;97169.72;;;14.76;73.13
16030;BME280;34770;49.272;11.070;2023-05-10T06:46:55;97151.13;;;14.72;71.25
16030;BME280;34770;49.272;11.070;2023-05-10T06:49:21;97169.59;;;14.62;72.78
16030;BME280;34770;49.272;11.070;2023-05-10T06:51:47;97173.91;;;14.48;73.08
16030;BME280;34770;49.272;11.070;2023-05-10T06:54:13;97161.50;;;14.45;72.45
16030;BME280;34770;49.272;11.070;2023-05-10T06:56:39;97161.63;;;14.52;74.44
16030;BME280;34770;49.272;11.070;2023-05-10T06:59:05;97164.16;;;14.62;72.48
16030;BME280;34770;49.272;11.070;2023-05-10T07:01:30;97168.31;;;14.80;74.25
16030;BME280;34770;49.272;11.070;2023-05-10T07:03:56;97166.38;;;14.89;71.54
16030;BME280;34770;49.272;11.070;2023-05-10T07:06:21;97166.28;;;15.05;71.35
16030;BME280;34770;49.272;11.070;2023-05-10T07:08:47;97180.03;;;15.20;71.57
16030;BME280;34770;49.272;11.070;2023-05-10T07:11:12;97171.13;;;15.26;70.36
16030;BME280;34770;49.272;11.070;2023-05-10T07:13:38;97184.41;;;14.98;69.58
16030;BME280;34770;49.272;11.070;2023-05-10T07:16:06;97189.78;;;15.14;70.99
16030;BME280;34770;49.272;11.070;2023-05-10T07:18:33;97171.28;;;15.01;68.80
16030;BME280;34770;49.272;11.070;2023-05-10T07:20:58;97192.56;;;15.06;68.10
16030;BME280;34770;49.272;11.070;2023-05-10T07:23:24;97187.06;;;15.37;70.29
16030;BME280;34770;49.272;11.070;2023-05-10T07:25:50;97199.06;;;15.28;69.35
16030;BME280;34770;49.272;11.070;2023-05-10T07:28:19;97193.59;;;15.58;69.92
16030;BME280;34770;49.272;11.070;2023-05-10T07:30:45;97208.47;;;15.79;69.30
16030;BME280;34770;49.272;11.070;2023-05-10T07:33:13;97201.84;;;15.96;69.26
16030;BME280;34770;49.272;11.070;2023-05-10T07:35:38;97193.53;;;15.89;68.02
16030;BME280;34770;49.272;11.070;2023-05-10T07:38:04;97198.66;;;15.39;66.43
16030;BME280;34770;49.272;11.070;2023-05-10T07:40:30;97213.44;;;15.22;68.10
16030;BME280;34770;49.272;11.070;2023-05-10T07:42:55;97207.03;;;14.76;69.92
16030;BME280;34770;49.272;11.070;2023-05-10T07:45:21;97209.47;;;15.01;69.28
16030;BME280;34770;49.272;11.070;2023-05-10T07:47:47;97192.03;;;14.72;68.29
16030;BME280;34770;49.272;11.070;2023-05-10T07:50:13;97212.25;;;14.85;68.54
16030;BME280;34770;49.272;11.070;2023-05-10T07:52:39;97213.44;;;14.91;66.91
16030;BME280;34770;49.272;11.070;2023-05-10T07:55:05;97205.25;;;14.91;67.92
16030;BME280;34770;49.272;11.070;2023-05-10T07:57:31;97212.38;;;15.31;67.92
16030;BME280;34770;49.272;11.070;2023-05-10T07:59:56;97211.47;;;15.46;68.38
16030;BME280;34770;49.272;11.070;2023-05-10T08:02:22;97225.09;;;15.38;67.00
16030;BME280;34770;49.272;11.070;2023-05-10T08:04:47;97215.19;;;15.45;65.82
16030;BME280;34770;49.272;11.070;2023-05-10T08:07:12;97215.81;;;15.25;67.45
16030;BME280;34770;49.272;11.070;2023-05-10T08:09:38;97218.53;;;15.55;66.47
16030;BME280;34770;49.272;11.070;2023-05-10T08:12:04;97209.41;;;15.40;66.95
16030;BME280;34770;49.272;11.070;2023-05-10T08:14:29;97209.31;;;15.26;66.36
16030;BME280;34770;49.272;11.070;2023-05-10T08:16:55;97220.84;;;15.66;65.48
16030;BME280;34770;49.272;11.070;2023-05-10T08:19:21;97222.84;;;15.73;65.03
16030;BME280;34770;49.272;11.070;2023-05-10T08:21:48;97210.09;;;15.88;64.60
16030;BME280;34770;49.272;11.070;2023-05-10T08:24:13;97220.31;;;16.46;64.50
16030;BME280;34770;49.272;11.070;2023-05-10T08:26:38;97221.25;;;16.01;63.66
16030;BME280;34770;49.272;11.070;2023-05-10T08:29:04;97225.28;;;15.68;64.84
16030;BME280;34770;49.272;11.070;2023-05-10T08:31:30;97229.19;;;15.42;66.05
16030;BME280;34770;49.272;11.070;2023-05-10T08:33:55;97222.16;;;15.17;66.56
16030;BME280;34770;49.272;11.070;2023-05-10T08:36:21;97233.97;;;14.79;69.78
16030;BME280;34770;49.272;11.070;2023-05-10T08:38:50;97229.63;;;14.92;67.99
16030;BME280;34770;49.272;11.070;2023-05-10T08:41:19;97239.81;;;15.06;68.40
16030;BME280;34770;49.272;11.070;2023-05-10T08:43:46;97233.69;;;15.27;67.21
16030;BME280;34770;49.272;11.070;2023-05-10T08:46:15;97244.03;;;15.71;67.11
16030;BME280;34770;49.272;11.070;2023-05-10T08:48:43;97233.97;;;15.94;65.55
16030;BME280;34770;49.272;11.070;2023-05-10T08:51:13;97222.63;;;16.19;64.28
16030;BME280;34770;49.272;11.070;2023-05-10T08:53:39;97227.22;;;16.04;66.24
16030;BME280;34770;49.272;11.070;2023-05-10T08:56:05;97206.91;;;16.21;65.92
16030;BME280;34770;49.272;11.070;2023-05-10T08:58:31;97235.81;;;16.16;64.40
16030;BME280;34770;49.272;11.070;2023-05-10T09:00:57;97235.47;;;15.96;65.29
16030;BME280;34770;49.272;11.070;2023-05-10T09:03:23;97229.25;;;16.25;66.03
16030;BME280;34770;49.272;11.070;2023-05-10T09:05:48;97239.69;;;16.73;64.33
16030;BME280;34770;49.272;11.070;2023-05-10T09:08:14;97234.00;;;17.19;64.15
16030;BME280;34770;49.272;11.070;2023-05-10T09:10:42;97236.59;;;17.56;61.32
16030;BME280;34770;49.272;11.070;2023-05-10T09:13:09;97226.84;;;17.03;61.10
16030;BME280;34770;49.272;11.070;2023-05-10T09:15:35;97235.84;;;17.48;61.07
16030;BME280;34770;49.272;11.070;2023-05-10T09:18:01;97219.75;;;17.23;59.28
16030;BME280;34770;49.272;11.070;2023-05-10T09:20:27;97225.78;;;16.46;60.35
16030;BME280;34770;49.272;11.070;2023-05-10T09:22:53;97228.56;;;16.75;60.77
16030;BME280;34770;49.272;11.070;2023-05-10T09:25:19;97233.78;;;17.35;59.31
16030;BME280;34770;49.272;11.070;2023-05-10T09:27:46;97237.88;;;17.60;59.09
16030;BME280;34770;49.272;11.070;2023-05-10T09:30:25;97236.56;;;17.71;55.94
16030;BME280;34770;49.272;11.070;2023-05-10T09:32:52;97235.94;;;17.39;54.79
16030;BME280;34770;49.272;11.070;2023-05-10T09:35:19;97235.94;;;17.54;57.18
16030;BME280;34770;49.272;11.070;2023-05-10T09:37:48;97235.53;;;17.57;57.96
16030;BME280;34770;49.272;11.070;2023-05-10T09:40:18;97217.22;;;17.07;57.37
16030;BME280;34770;49.272;11.070;2023-05-10T09:43:07;97241.03;;;16.77;55.49
16030;BME280;34770;49.272;11.070;2023-05-10T09:45:34;97211.81;;;16.41;58.33
16030;BME280;34770;49.272;11.070;2023-05-10T09:48:01;97224.25;;;17.31;57.27
16030;BME280;34770;49.272;11.070;2023-05-10T09:50:28;97233.41;;;17.95;56.70
16030;BME280;34770;49.272;11.070;2023-05-10T09:52:58;97237.09;;;18.51;52.32
16030;BME280;34770;49.272;11.070;2023-05-10T09:55:47;97221.53;;;17.67;54.95
16030;BME280;34770;49.272;11.070;2023-05-10T09:58:14;97239.09;;;17.07;55.90
16030;BME280;34770;49.272;11.070;2023-05-10T10:00:44;97241.31;;;16.97;57.89
16030;BME280;34770;49.272;11.070;2023-05-10T10:03:20;97251.31;;;16.38;59.29
16030;BME280;34770;49.272;11.070;2023-05-10T10:05:47;97246.38;;;16.19;60.52
16030;BME280;34770;49.272;11.070;2023-05-10T10:08:13;97244.56;;;16.11;60.53
16030;BME280;34770;49.272;11.070;2023-05-10T10:10:39;97247.72;;;16.00;60.54
16030;BME280;34770;49.272;11.070;2023-05-10T10:13:06;97248.09;;;15.97;59.54
16030;BME280;34770;49.272;11.070;2023-05-10T10:15:33;97255.13;;;15.92;60.86
16030;BME280;34770;49.272;11.070;2023-05-10T10:17:59;97258.91;;;16.13;59.53
16030;BME280;34770;49.272;11.070;2023-05-10T10:20:25;97249.63;;;16.37;59.38
16030;BME280;34770;49.272;11.070;2023-05-10T10:22:51;97251.94;;;16.25;58.47
16030;BME280;34770;49.272;11.070;2023-05-10T10:25:18;97243.47;;;16.20;59.42
16030;BME280;34770;49.272;11.070;2023-05-10T10:30:43;97253.22;;;17.55;58.42
16030;BME280;34770;49.272;11.070;2023-05-10T10:35:55;97237.88;;;17.96;54.48
16030;BME280;34770;49.272;11.070;2023-05-10T10:38:23;97248.97;;;17.88;55.28
16030;BME280;34770;49.272;11.070;2023-05-10T10:41:02;97246.88;;;17.04;57.30
16030;BME280;34770;49.272;11.070;2023-05-10T10:43:28;97250.44;;;17.04;58.15
16030;BME280;34770;49.272;11.070;2023-05-10T10:46:13;97243.09;;;16.75;58.85
16030;BME280;34770;49.272;11.070;2023-05-10T10:48:50;97252.34;;;16.37;60.02
16030;BME280;34770;49.272;11.070;2023-05-10T10:51:37;97244.69;;;16.55;59.24
16030;BME280;34770;49.272;11.070;2023-05-10T10:54:09;97227.34;;;16.63;60.42
16030;BME280;34770;49.272;11.070;2023-05-10T10:56:35;97231.78;;;16.64;59.82
16030;BME280;34770;49.272;11.070;2023-05-10T10:59:01;97219.31;;;16.91;58.69
16030;BME280;34770;49.272;11.070;2023-05-10T11:01:32;97216.41;;;16.77;59.41
16030;BME280;34770;49.272;11.070;2023-05-10T11:06:34;97239.56;;;17.25;59.48
16030;BME280;34770;49.272;11.070;2023-05-10T11:09:11;97252.13;;;17.20;58.78
16030;BME280;34770;49.272;11.070;2023-05-10T11:11:53;97242.81;;;17.00;59.40
16030;BME280;34770;49.272;11.070;2023-05-10T11:14:23;97244.78;;;16.76;59.37
16030;BME280;34770;49.272;11.070;2023-05-10T11:16:49;97242.25;;;16.60;60.96
16030;BME280;34770;49.272;11.070;2023-05-10T11:19:16;97256.69;;;16.84;60.50
16030;BME280;34770;49.272;11.070;2023-05-10T11:24:18;97246.19;;;17.16;58.24
16030;BME280;34770;49.272;11.070;2023-05-10T11:26:43;97233.94;;;16.68;59.06
16030;BME280;34770;49.272;11.070;2023-05-10T11:29:09;97252.63;;;16.94;58.03
16030;BME280;34770;49.272;11.070;2023-05-10T11:31:35;97234.22;;;16.88;59.63
16030;BME280;34770;49.272;11.070;2023-05-10T11:34:06;97245.91;;;16.82;57.97
16030;BME280;34770;49.272;11.070;2023-05-10T11:36:35;97245.63;;;16.77;58.57
16030;BME280;34770;49.272;11.070;2023-05-10T11:39:02;97228.13;;;17.22;56.66
16030;BME280;34770;49.272;11.070;2023-05-10T11:41:29;97250.25;;;17.20;56.55
16030;BME280;34770;49.272;11.070;2023-05-10T11:43:56;97260.47;;;16.97;57.73
16030;BME280;34770;49.272;11.070;2023-05-10T11:46:24;97243.19;;;16.82;57.42
16030;BME280;34770;49.272;11.070;2023-05-10T11:48:53;97247.91;;;17.03;58.39
16030;BME280;34770;49.272;11.070;2023-05-10T11:51:20;97247.53;;;17.06;58.21
16030;BME280;34770;49.272;11.070;2023-05-10T11:53:46;97254.03;;;17.05;57.45
16030;BME280;34770;49.272;11.070;2023-05-10T11:56:11;97256.19;;;16.65;59.16
16030;BME280;34770;49.272;11.070;2023-05-10T11:58:38;97263.19;;;16.83;58.97
16030;BME280;34770;49.272;11.070;2023-05-10T12:01:06;97260.44;;;16.83;59.49
16030;BME280;34770;49.272;11.070;2023-05-10T12:03:32;97261.81;;;16.49;61.02
16030;BME280;34770;49.272;11.070;2023-05-10T12:05:58;97269.03;;;16.65;61.35
16030;BME280;34770;49.272;11.070;2023-05-10T12:08:26;97264.59;;;16.27;62.81
16030;BME280;34770;49.272;11.070;2023-05-10T12:10:52;97281.38;;;16.23;63.41
16030;BME280;34770;49.272;11.070;2023-05-10T12:13:19;97286.72;;;15.72;64.96
16030;BME280;34770;49.272;11.070;2023-05-10T12:15:45;97281.78;;;15.67;65.84
16030;BME280;34770;49.272;11.070;2023-05-10T12:18:12;97282.38;;;15.85;65.66
16030;BME280;34770;49.272;11.070;2023-05-10T12:20:38;97284.47;;;15.98;65.50
16030;BME280;34770;49.272;11.070;2023-05-10T12:23:04;97284.47;;;15.75;66.29
16030;BME280;34770;49.272;11.070;2023-05-10T12:25:32;97268.84;;;15.61;66.52
16030;BME280;34770;49.272;11.070;2023-05-10T12:27:59;97285.63;;;15.81;67.30
16030;BME280;34770;49.272;11.070;2023-05-10T12:30:30;97274.94;;;15.71;66.57
16030;BME280;34770;49.272;11.070;2023-05-10T12:33:14;97279.28;;;15.88;65.89
16030;BME280;34770;49.272;11.070;2023-05-10T12:35:52;97274.09;;;15.93;64.55
16030;BME280;34770;49.272;11.070;2023-05-10T12:38:39;97265.47;;;15.82;64.17
16030;BME280;34770;49.272;11.070;2023-05-10T12:41:09;97278.28;;;15.81;61.37
16030;BME280;34770;49.272;11.070;2023-05-10T12:43:35;97271.38;;;15.93;60.14
16030;BME280;34770;49.272;11.070;2023-05-10T12:46:19;97272.25;;;16.08;61.62
16030;BME280;34770;49.272;11.070;2023-05-10T12:48:44;97281.63;;;15.91;61.17
16030;BME280;34770;49.272;11.070;2023-05-10T12:51:17;97279.91;;;15.68;62.24
16030;BME280;34770;49.272;11.070;2023-05-10T12:53:44;97286.06;;;15.92;62.48
16030;BME280;34770;49.272;11.070;2023-05-10T12:56:10;97267.91;;;15.99;64.59
16030;BME280;34770;49.272;11.070;2023-05-10T12:58:38;97281.00;;;16.04;64.20
16030;BME280;34770;49.272;11.070;2023-05-10T13:01:04;97276.81;;;16.16;65.67
16030;BME280;34770;49.272;11.070;2023-05-10T13:03:30;97278.56;;;16.09;64.98
16030;BME280;34770;49.272;11.070;2023-05-10T13:05:55;97272.75;;;16.12;64.87
16030;BME280;34770;49.272;11.070;2023-05-10T13:08:21;97273.25;;;15.93;66.18
16030;BME280;34770;49.272;11.070;2023-05-10T13:10:47;97273.56;;;16.35;65.47
16030;BME280;34770;49.272;11.070;2023-05-10T13:13:12;97258.63;;;16.23;63.64
16030;BME280;34770;49.272;11.070;2023-05-10T13:15:37;97276.47;;;16.56;64.67
16030;BME280;34770;49.272;11.070;2023-05-10T13:18:03;97261.16;;;16.47;64.10
16030;BME280;34770;49.272;11.070;2023-05-10T13:20:29;97252.16;;;16.91;62.66
16030;BME280;34770;49.272;11.070;2023-05-10T13:22:54;97257.41;;;17.07;60.90
16030;BME280;34770;49.272;11.070;2023-05-10T13:25:20;97243.38;;;16.66;59.92
16030;BME280;34770;49.272;11.070;2023-05-10T13:27:45;97252.53;;;16.88;63.34